Airfield :
LOGIN :

Register | Disclaimer

   EN    FR    IT 

 










Legend :    VFR   Marginal VFR   IFR   Intensive IFR   Very Intensive IFR
Visi :
Ceiling :
>= 8 km
>= 3000ft
5 to 8 km
1000 to 3000 ft
1500m to 5 km
500 to 1000 ft
800 to 1500m
200 to 500 ft
< 800m
< 200 ft
Symbols :   Thunderstorms  Fog  Heavy snow  Heavy precipitations  Wind > 20 kt
SIGMETs :     Misc.  Thunderstorms  Icing  Turbulence  Mountain Waves  Volcanic Ashes







- Airport Elevation : 235 ft
- IATA code : BZG


EPBY - Bydgoszcz

CURRENT METAR :
  • 300100Z 06004KT 9999 FEW012 14/13 Q1013

EXPIRED METARs :
  • 300030Z 06004KT CAVOK 14/13 Q1013
  • 300000Z 07004KT CAVOK 14/13 Q1013
  • 292330Z 06004KT CAVOK 14/13 Q1013
  • 292300Z 05005KT CAVOK 15/13 Q1013
  • 292230Z 07007KT CAVOK 15/13 Q1013

TAF TAF EPBY
Valid from the 30 at 00:00 until the 31 at 00:00 UTC


292330Z 3000/3024 VRB05KT CAVOK
PROB40 3001/3005 3000 BR BKN005
TEMPO 3015/3024 TSRA BKN030CB
PROB30
TEMPO 3015/3021 VRB16G36KT 2000 TSGR
No reported NOTAMs for that airfield.



MET'MAP, your aeronautical weather chart ! - Copyright ORBIFLY December 2007 - Disclaimer

ORBIFLY MET'MAP TEAM :

Programming & Development : Alexandra Zaïnal
Concept & Development : Baudouin d'Aumeries
Co-Development & Prog : Marc-Olivier Méhu
Technical & hardware support : Manuel Goepfert

Contact : metmap@orbifly.com




SOURCES & CREDITS :

   NOAA